sensor_id;sensor_type;location;lat;lon;timestamp;P1;durP1;ratioP1;P2;durP2;ratioP2
13173;SDS011;6652;48.802;9.190;2023-12-20T00:01:22;2.15;;;1.25;;
13173;SDS011;6652;48.802;9.190;2023-12-20T00:03:49;2.45;;;1.30;;
13173;SDS011;6652;48.802;9.190;2023-12-20T00:06:16;1.45;;;1.20;;
13173;SDS011;6652;48.802;9.190;2023-12-20T00:08:43;1.50;;;1.13;;
13173;SDS011;6652;48.802;9.190;2023-12-20T00:11:11;2.28;;;1.10;;
13173;SDS011;6652;48.802;9.190;2023-12-20T00:13:38;2.05;;;1.20;;
13173;SDS011;6652;48.802;9.190;2023-12-20T00:16:05;1.60;;;1.27;;
13173;SDS011;6652;48.802;9.190;2023-12-20T00:18:32;3.78;;;1.23;;
13173;SDS011;6652;48.802;9.190;2023-12-20T00:20:59;2.53;;;1.00;;
13173;SDS011;6652;48.802;9.190;2023-12-20T00:23:26;1.58;;;1.02;;
13173;SDS011;6652;48.802;9.190;2023-12-20T00:25:52;2.78;;;1.10;;
13173;SDS011;6652;48.802;9.190;2023-12-20T00:28:20;1.10;;;1.00;;
13173;SDS011;6652;48.802;9.190;2023-12-20T00:30:48;1.70;;;0.90;;
13173;SDS011;6652;48.802;9.190;2023-12-20T00:33:14;2.88;;;1.25;;
13173;SDS011;6652;48.802;9.190;2023-12-20T00:35:41;1.60;;;1.20;;
13173;SDS011;6652;48.802;9.190;2023-12-20T00:38:08;1.45;;;1.05;;
13173;SDS011;6652;48.802;9.190;2023-12-20T00:40:36;1.50;;;0.95;;
13173;SDS011;6652;48.802;9.190;2023-12-20T00:43:03;1.58;;;1.10;;
13173;SDS011;6652;48.802;9.190;2023-12-20T00:45:31;1.27;;;1.10;;
13173;SDS011;6652;48.802;9.190;2023-12-20T00:47:58;1.77;;;0.90;;
13173;SDS011;6652;48.802;9.190;2023-12-20T00:50:25;2.88;;;1.23;;
13173;SDS011;6652;48.802;9.190;2023-12-20T00:52:51;1.35;;;1.00;;
13173;SDS011;6652;48.802;9.190;2023-12-20T00:55:19;1.15;;;1.05;;
13173;SDS011;6652;48.802;9.190;2023-12-20T00:57:46;3.08;;;1.13;;
13173;SDS011;6652;48.802;9.190;2023-12-20T01:00:13;1.73;;;1.05;;
13173;SDS011;6652;48.802;9.190;2023-12-20T01:02:42;2.58;;;1.02;;
13173;SDS011;6652;48.802;9.190;2023-12-20T01:05:08;1.60;;;0.98;;
13173;SDS011;6652;48.802;9.190;2023-12-20T01:07:35;1.63;;;1.00;;
13173;SDS011;6652;48.802;9.190;2023-12-20T01:10:02;2.63;;;1.30;;
13173;SDS011;6652;48.802;9.190;2023-12-20T01:12:29;6.47;;;2.05;;
13173;SDS011;6652;48.802;9.190;2023-12-20T01:14:56;10.40;;;1.85;;
13173;SDS011;6652;48.802;9.190;2023-12-20T01:17:23;3.60;;;1.27;;
13173;SDS011;6652;48.802;9.190;2023-12-20T01:19:51;3.20;;;1.40;;
13173;SDS011;6652;48.802;9.190;2023-12-20T01:22:18;3.28;;;1.30;;
13173;SDS011;6652;48.802;9.190;2023-12-20T01:24:45;4.18;;;1.60;;
13173;SDS011;6652;48.802;9.190;2023-12-20T01:27:12;3.55;;;1.60;;
13173;SDS011;6652;48.802;9.190;2023-12-20T01:29:38;3.38;;;1.38;;
13173;SDS011;6652;48.802;9.190;2023-12-20T01:32:05;2.75;;;1.40;;
13173;SDS011;6652;48.802;9.190;2023-12-20T01:34:32;1.80;;;1.20;;
13173;SDS011;6652;48.802;9.190;2023-12-20T01:37:01;3.28;;;1.27;;
13173;SDS011;6652;48.802;9.190;2023-12-20T01:39:29;1.27;;;1.17;;
13173;SDS011;6652;48.802;9.190;2023-12-20T01:41:57;1.95;;;1.45;;
13173;SDS011;6652;48.802;9.190;2023-12-20T01:44:23;3.20;;;1.35;;
13173;SDS011;6652;48.802;9.190;2023-12-20T01:46:50;4.57;;;1.52;;
13173;SDS011;6652;48.802;9.190;2023-12-20T01:49:17;1.73;;;1.40;;
13173;SDS011;6652;48.802;9.190;2023-12-20T01:51:44;2.63;;;1.23;;
13173;SDS011;6652;48.802;9.190;2023-12-20T01:54:12;1.80;;;1.40;;
13173;SDS011;6652;48.802;9.190;2023-12-20T01:56:39;2.20;;;1.10;;
13173;SDS011;6652;48.802;9.190;2023-12-20T01:59:07;1.75;;;1.13;;
13173;SDS011;6652;48.802;9.190;2023-12-20T02:01:34;2.53;;;1.35;;
13173;SDS011;6652;48.802;9.190;2023-12-20T02:04:02;3.83;;;1.48;;
13173;SDS011;6652;48.802;9.190;2023-12-20T02:06:29;5.85;;;1.60;;
13173;SDS011;6652;48.802;9.190;2023-12-20T02:08:56;2.42;;;1.70;;
13173;SDS011;6652;48.802;9.190;2023-12-20T02:11:25;3.05;;;1.60;;
13173;SDS011;6652;48.802;9.190;2023-12-20T02:13:52;3.17;;;1.40;;
13173;SDS011;6652;48.802;9.190;2023-12-20T02:16:20;1.95;;;1.30;;
13173;SDS011;6652;48.802;9.190;2023-12-20T02:18:47;2.72;;;1.38;;
13173;SDS011;6652;48.802;9.190;2023-12-20T02:21:14;2.22;;;1.40;;
13173;SDS011;6652;48.802;9.190;2023-12-20T02:23:42;2.63;;;1.40;;
13173;SDS011;6652;48.802;9.190;2023-12-20T02:26:09;3.55;;;1.40;;
13173;SDS011;6652;48.802;9.190;2023-12-20T02:28:38;3.28;;;1.65;;
13173;SDS011;6652;48.802;9.190;2023-12-20T02:31:06;3.13;;;1.52;;
13173;SDS011;6652;48.802;9.190;2023-12-20T02:33:32;1.65;;;1.50;;
13173;SDS011;6652;48.802;9.190;2023-12-20T02:35:59;2.50;;;1.70;;
13173;SDS011;6652;48.802;9.190;2023-12-20T02:38:26;3.17;;;2.00;;
13173;SDS011;6652;48.802;9.190;2023-12-20T02:40:54;3.42;;;1.70;;
13173;SDS011;6652;48.802;9.190;2023-12-20T02:43:21;3.00;;;1.98;;
13173;SDS011;6652;48.802;9.190;2023-12-20T02:45:47;2.42;;;1.60;;
13173;SDS011;6652;48.802;9.190;2023-12-20T02:48:14;4.50;;;1.80;;
13173;SDS011;6652;48.802;9.190;2023-12-20T02:50:41;3.75;;;2.20;;
13173;SDS011;6652;48.802;9.190;2023-12-20T02:53:08;3.33;;;1.95;;
13173;SDS011;6652;48.802;9.190;2023-12-20T02:55:35;2.95;;;1.63;;
13173;SDS011;6652;48.802;9.190;2023-12-20T02:58:03;1.58;;;1.48;;
13173;SDS011;6652;48.802;9.190;2023-12-20T03:00:30;4.07;;;1.80;;
13173;SDS011;6652;48.802;9.190;2023-12-20T03:02:56;3.72;;;1.90;;
13173;SDS011;6652;48.802;9.190;2023-12-20T03:05:24;4.72;;;2.15;;
13173;SDS011;6652;48.802;9.190;2023-12-20T03:07:51;3.33;;;1.75;;
13173;SDS011;6652;48.802;9.190;2023-12-20T03:10:18;4.05;;;1.88;;
13173;SDS011;6652;48.802;9.190;2023-12-20T03:12:45;2.70;;;1.92;;
13173;SDS011;6652;48.802;9.190;2023-12-20T03:15:13;2.15;;;1.80;;
13173;SDS011;6652;48.802;9.190;2023-12-20T03:17:40;2.72;;;1.83;;
13173;SDS011;6652;48.802;9.190;2023-12-20T03:20:07;4.57;;;1.52;;
13173;SDS011;6652;48.802;9.190;2023-12-20T03:22:35;5.95;;;1.52;;
13173;SDS011;6652;48.802;9.190;2023-12-20T03:25:01;3.97;;;1.42;;
13173;SDS011;6652;48.802;9.190;2023-12-20T03:27:28;6.20;;;1.30;;
13173;SDS011;6652;48.802;9.190;2023-12-20T03:29:55;9.43;;;0.95;;
13173;SDS011;6652;48.802;9.190;2023-12-20T03:32:23;1.27;;;0.63;;
13173;SDS011;6652;48.802;9.190;2023-12-20T03:34:50;7.35;;;0.90;;
13173;SDS011;6652;48.802;9.190;2023-12-20T03:37:16;2.28;;;0.77;;
13173;SDS011;6652;48.802;9.190;2023-12-20T03:39:43;8.90;;;0.80;;
13173;SDS011;6652;48.802;9.190;2023-12-20T03:42:10;8.90;;;0.90;;
13173;SDS011;6652;48.802;9.190;2023-12-20T03:44:38;7.47;;;1.10;;
13173;SDS011;6652;48.802;9.190;2023-12-20T03:47:05;12.73;;;1.20;;
13173;SDS011;6652;48.802;9.190;2023-12-20T03:49:33;7.57;;;0.93;;
13173;SDS011;6652;48.802;9.190;2023-12-20T03:52:02;7.35;;;1.27;;
13173;SDS011;6652;48.802;9.190;2023-12-20T03:54:29;2.63;;;0.40;;
13173;SDS011;6652;48.802;9.190;2023-12-20T03:56:56;6.65;;;1.02;;
13173;SDS011;6652;48.802;9.190;2023-12-20T03:59:22;3.53;;;0.65;;
13173;SDS011;6652;48.802;9.190;2023-12-20T04:01:49;3.13;;;0.52;;
13173;SDS011;6652;48.802;9.190;2023-12-20T04:04:16;0.60;;;0.28;;
13173;SDS011;6652;48.802;9.190;2023-12-20T04:06:44;0.43;;;0.20;;
13173;SDS011;6652;48.802;9.190;2023-12-20T04:09:11;0.63;;;0.30;;
13173;SDS011;6652;48.802;9.190;2023-12-20T04:11:38;0.95;;;0.20;;
13173;SDS011;6652;48.802;9.190;2023-12-20T04:14:04;0.60;;;0.20;;
13173;SDS011;6652;48.802;9.190;2023-12-20T04:16:32;0.10;;;0.10;;
13173;SDS011;6652;48.802;9.190;2023-12-20T04:18:59;0.22;;;0.20;;
13173;SDS011;6652;48.802;9.190;2023-12-20T04:21:26;0.20;;;0.10;;
13173;SDS011;6652;48.802;9.190;2023-12-20T04:23:54;0.60;;;0.10;;
13173;SDS011;6652;48.802;9.190;2023-12-20T04:26:20;0.20;;;0.20;;
13173;SDS011;6652;48.802;9.190;2023-12-20T04:28:47;2.25;;;0.20;;
13173;SDS011;6652;48.802;9.190;2023-12-20T04:31:14;0.10;;;0.10;;
13173;SDS011;6652;48.802;9.190;2023-12-20T04:33:41;0.17;;;0.10;;
13173;SDS011;6652;48.802;9.190;2023-12-20T04:36:08;0.00;;;0.00;;
13173;SDS011;6652;48.802;9.190;2023-12-20T04:38:35;0.10;;;0.10;;
13173;SDS011;6652;48.802;9.190;2023-12-20T04:41:03;0.75;;;0.20;;
13173;SDS011;6652;48.802;9.190;2023-12-20T04:43:30;0.28;;;0.05;;
13173;SDS011;6652;48.802;9.190;2023-12-20T04:45:57;1.15;;;0.10;;
13173;SDS011;6652;48.802;9.190;2023-12-20T04:48:23;0.05;;;0.05;;
13173;SDS011;6652;48.802;9.190;2023-12-20T04:50:50;0.10;;;0.10;;
13173;SDS011;6652;48.802;9.190;2023-12-20T04:53:17;0.20;;;0.10;;
13173;SDS011;6652;48.802;9.190;2023-12-20T04:55:43;0.77;;;0.20;;
13173;SDS011;6652;48.802;9.190;2023-12-20T04:58:12;0.20;;;0.15;;
13173;SDS011;6652;48.802;9.190;2023-12-20T05:00:38;0.15;;;0.15;;
13173;SDS011;6652;48.802;9.190;2023-12-20T05:03:05;0.25;;;0.10;;
13173;SDS011;6652;48.802;9.190;2023-12-20T05:05:33;0.17;;;0.10;;
13173;SDS011;6652;48.802;9.190;2023-12-20T05:08:00;0.40;;;0.10;;
13173;SDS011;6652;48.802;9.190;2023-12-20T05:10:26;1.98;;;0.10;;
13173;SDS011;6652;48.802;9.190;2023-12-20T05:12:53;0.10;;;0.10;;
13173;SDS011;6652;48.802;9.190;2023-12-20T05:15:21;1.55;;;0.13;;
13173;SDS011;6652;48.802;9.190;2023-12-20T05:17:48;0.17;;;0.17;;
13173;SDS011;6652;48.802;9.190;2023-12-20T05:20:15;0.35;;;0.20;;
13173;SDS011;6652;48.802;9.190;2023-12-20T05:22:42;0.10;;;0.10;;
13173;SDS011;6652;48.802;9.190;2023-12-20T05:25:10;1.00;;;0.30;;
13173;SDS011;6652;48.802;9.190;2023-12-20T05:27:36;7.85;;;4.60;;
13173;SDS011;6652;48.802;9.190;2023-12-20T05:30:04;5.60;;;2.83;;
13173;SDS011;6652;48.802;9.190;2023-12-20T05:32:33;1.38;;;0.80;;
13173;SDS011;6652;48.802;9.190;2023-12-20T05:35:00;0.57;;;0.30;;
13173;SDS011;6652;48.802;9.190;2023-12-20T05:37:26;0.52;;;0.10;;
13173;SDS011;6652;48.802;9.190;2023-12-20T05:39:53;4.18;;;1.85;;
13173;SDS011;6652;48.802;9.190;2023-12-20T05:42:21;3.42;;;1.00;;
13173;SDS011;6652;48.802;9.190;2023-12-20T05:44:48;1.02;;;0.60;;
13173;SDS011;6652;48.802;9.190;2023-12-20T05:47:15;0.10;;;0.10;;
13173;SDS011;6652;48.802;9.190;2023-12-20T05:49:44;1.23;;;0.20;;
13173;SDS011;6652;48.802;9.190;2023-12-20T05:52:11;0.30;;;0.30;;
13173;SDS011;6652;48.802;9.190;2023-12-20T05:54:37;0.20;;;0.20;;
13173;SDS011;6652;48.802;9.190;2023-12-20T05:57:04;0.32;;;0.22;;
13173;SDS011;6652;48.802;9.190;2023-12-20T05:59:31;7.70;;;3.63;;
13173;SDS011;6652;48.802;9.190;2023-12-20T06:01:58;0.65;;;0.40;;
13173;SDS011;6652;48.802;9.190;2023-12-20T06:04:24;0.20;;;0.20;;
13173;SDS011;6652;48.802;9.190;2023-12-20T06:06:53;0.20;;;0.20;;
13173;SDS011;6652;48.802;9.190;2023-12-20T06:09:19;0.57;;;0.28;;
13173;SDS011;6652;48.802;9.190;2023-12-20T06:11:46;0.80;;;0.30;;
13173;SDS011;6652;48.802;9.190;2023-12-20T06:14:13;0.45;;;0.32;;
13173;SDS011;6652;48.802;9.190;2023-12-20T06:16:40;1.17;;;0.30;;
13173;SDS011;6652;48.802;9.190;2023-12-20T06:19:06;0.80;;;0.20;;
13173;SDS011;6652;48.802;9.190;2023-12-20T06:21:33;0.30;;;0.17;;
13173;SDS011;6652;48.802;9.190;2023-12-20T06:24:01;2.53;;;0.80;;
13173;SDS011;6652;48.802;9.190;2023-12-20T06:26:28;1.55;;;0.40;;
13173;SDS011;6652;48.802;9.190;2023-12-20T06:28:55;1.70;;;0.60;;
13173;SDS011;6652;48.802;9.190;2023-12-20T06:31:22;0.52;;;0.43;;
13173;SDS011;6652;48.802;9.190;2023-12-20T06:33:48;0.65;;;0.45;;
13173;SDS011;6652;48.802;9.190;2023-12-20T06:36:22;1.88;;;0.60;;
13173;SDS011;6652;48.802;9.190;2023-12-20T06:38:49;0.60;;;0.32;;
13173;SDS011;6652;48.802;9.190;2023-12-20T06:41:17;0.40;;;0.40;;
13173;SDS011;6652;48.802;9.190;2023-12-20T06:43:44;2.65;;;0.47;;
13173;SDS011;6652;48.802;9.190;2023-12-20T06:46:12;0.98;;;0.50;;
13173;SDS011;6652;48.802;9.190;2023-12-20T06:48:39;0.43;;;0.43;;
13173;SDS011;6652;48.802;9.190;2023-12-20T06:51:06;1.60;;;0.60;;
13173;SDS011;6652;48.802;9.190;2023-12-20T06:53:33;1.85;;;0.40;;
13173;SDS011;6652;48.802;9.190;2023-12-20T06:55:59;2.03;;;0.75;;
13173;SDS011;6652;48.802;9.190;2023-12-20T06:58:27;1.48;;;0.50;;
13173;SDS011;6652;48.802;9.190;2023-12-20T07:00:54;0.75;;;0.60;;
13173;SDS011;6652;48.802;9.190;2023-12-20T07:03:21;2.63;;;0.70;;
13173;SDS011;6652;48.802;9.190;2023-12-20T07:05:48;2.47;;;0.70;;
13173;SDS011;6652;48.802;9.190;2023-12-20T07:08:14;2.20;;;0.90;;
13173;SDS011;6652;48.802;9.190;2023-12-20T07:10:41;2.45;;;1.02;;
13173;SDS011;6652;48.802;9.190;2023-12-20T07:13:08;1.70;;;1.08;;
13173;SDS011;6652;48.802;9.190;2023-12-20T07:15:36;4.55;;;1.02;;
13173;SDS011;6652;48.802;9.190;2023-12-20T07:18:03;1.42;;;1.00;;
13173;SDS011;6652;48.802;9.190;2023-12-20T07:20:31;4.63;;;1.75;;
13173;SDS011;6652;48.802;9.190;2023-12-20T07:22:58;2.15;;;1.80;;
13173;SDS011;6652;48.802;9.190;2023-12-20T07:25:25;3.58;;;2.67;;
13173;SDS011;6652;48.802;9.190;2023-12-20T07:27:52;3.70;;;2.63;;
13173;SDS011;6652;48.802;9.190;2023-12-20T07:30:19;6.28;;;3.35;;
13173;SDS011;6652;48.802;9.190;2023-12-20T07:32:47;5.88;;;2.90;;
13173;SDS011;6652;48.802;9.190;2023-12-20T07:35:14;8.10;;;2.95;;
13173;SDS011;6652;48.802;9.190;2023-12-20T07:37:42;3.67;;;2.65;;
13173;SDS011;6652;48.802;9.190;2023-12-20T07:40:09;5.50;;;2.20;;
13173;SDS011;6652;48.802;9.190;2023-12-20T07:42:36;2.78;;;1.70;;
13173;SDS011;6652;48.802;9.190;2023-12-20T07:45:03;1.88;;;1.77;;
13173;SDS011;6652;48.802;9.190;2023-12-20T07:47:30;3.55;;;1.80;;
13173;SDS011;6652;48.802;9.190;2023-12-20T07:49:58;2.45;;;1.90;;
13173;SDS011;6652;48.802;9.190;2023-12-20T07:52:25;3.63;;;2.00;;
13173;SDS011;6652;48.802;9.190;2023-12-20T07:54:52;2.65;;;1.80;;
13173;SDS011;6652;48.802;9.190;2023-12-20T07:57:19;2.83;;;2.03;;
13173;SDS011;6652;48.802;9.190;2023-12-20T07:59:46;4.10;;;1.92;;
13173;SDS011;6652;48.802;9.190;2023-12-20T08:02:13;2.28;;;1.95;;
13173;SDS011;6652;48.802;9.190;2023-12-20T08:04:40;5.35;;;2.30;;
13173;SDS011;6652;48.802;9.190;2023-12-20T08:07:08;6.13;;;1.95;;
13173;SDS011;6652;48.802;9.190;2023-12-20T08:09:35;4.07;;;2.72;;
13173;SDS011;6652;48.802;9.190;2023-12-20T08:12:02;7.38;;;4.32;;
13173;SDS011;6652;48.802;9.190;2023-12-20T08:14:29;7.15;;;4.55;;
13173;SDS011;6652;48.802;9.190;2023-12-20T08:16:56;5.10;;;2.25;;
13173;SDS011;6652;48.802;9.190;2023-12-20T08:19:23;4.28;;;2.92;;
13173;SDS011;6652;48.802;9.190;2023-12-20T08:21:50;4.90;;;2.38;;
13173;SDS011;6652;48.802;9.190;2023-12-20T08:24:18;3.05;;;2.30;;
13173;SDS011;6652;48.802;9.190;2023-12-20T08:26:44;7.10;;;2.67;;
13173;SDS011;6652;48.802;9.190;2023-12-20T08:29:12;7.40;;;3.30;;
13173;SDS011;6652;48.802;9.190;2023-12-20T08:31:39;4.13;;;2.47;;
13173;SDS011;6652;48.802;9.190;2023-12-20T08:34:06;9.52;;;2.60;;
13173;SDS011;6652;48.802;9.190;2023-12-20T08:36:33;6.35;;;2.78;;
13173;SDS011;6652;48.802;9.190;2023-12-20T08:39:00;3.47;;;2.25;;
13173;SDS011;6652;48.802;9.190;2023-12-20T08:41:30;5.32;;;2.72;;
13173;SDS011;6652;48.802;9.190;2023-12-20T08:43:57;4.40;;;2.97;;
13173;SDS011;6652;48.802;9.190;2023-12-20T08:46:23;5.53;;;2.13;;
13173;SDS011;6652;48.802;9.190;2023-12-20T08:48:50;4.43;;;2.22;;
13173;SDS011;6652;48.802;9.190;2023-12-20T08:51:17;3.17;;;2.13;;
13173;SDS011;6652;48.802;9.190;2023-12-20T08:53:44;2.92;;;1.52;;
13173;SDS011;6652;48.802;9.190;2023-12-20T08:56:12;4.22;;;1.63;;
13173;SDS011;6652;48.802;9.190;2023-12-20T08:58:40;3.28;;;1.80;;
13173;SDS011;6652;48.802;9.190;2023-12-20T09:01:07;7.47;;;1.85;;
13173;SDS011;6652;48.802;9.190;2023-12-20T09:03:34;7.55;;;3.05;;
13173;SDS011;6652;48.802;9.190;2023-12-20T09:06:01;4.63;;;1.45;;
13173;SDS011;6652;48.802;9.190;2023-12-20T09:08:28;2.65;;;1.50;;
13173;SDS011;6652;48.802;9.190;2023-12-20T09:10:55;4.25;;;1.75;;
13173;SDS011;6652;48.802;9.190;2023-12-20T09:13:22;2.05;;;1.40;;
13173;SDS011;6652;48.802;9.190;2023-12-20T09:15:54;2.63;;;1.40;;
13173;SDS011;6652;48.802;9.190;2023-12-20T09:18:21;4.47;;;1.55;;
13173;SDS011;6652;48.802;9.190;2023-12-20T09:20:48;2.88;;;1.50;;
13173;SDS011;6652;48.802;9.190;2023-12-20T09:23:14;2.70;;;1.20;;
13173;SDS011;6652;48.802;9.190;2023-12-20T09:25:42;4.18;;;1.40;;
13173;SDS011;6652;48.802;9.190;2023-12-20T09:28:09;3.38;;;1.55;;
13173;SDS011;6652;48.802;9.190;2023-12-20T09:30:36;3.50;;;1.50;;
13173;SDS011;6652;48.802;9.190;2023-12-20T09:33:06;10.43;;;1.30;;
13173;SDS011;6652;48.802;9.190;2023-12-20T09:35:33;4.32;;;1.15;;
13173;SDS011;6652;48.802;9.190;2023-12-20T09:37:59;3.85;;;1.35;;
13173;SDS011;6652;48.802;9.190;2023-12-20T09:40:26;8.55;;;1.75;;
13173;SDS011;6652;48.802;9.190;2023-12-20T09:42:56;4.95;;;1.30;;
13173;SDS011;6652;48.802;9.190;2023-12-20T09:45:24;7.32;;;1.30;;
13173;SDS011;6652;48.802;9.190;2023-12-20T09:47:52;5.72;;;1.88;;
13173;SDS011;6652;48.802;9.190;2023-12-20T09:50:21;3.75;;;1.50;;
13173;SDS011;6652;48.802;9.190;2023-12-20T09:52:49;4.90;;;1.20;;
13173;SDS011;6652;48.802;9.190;2023-12-20T09:55:17;8.93;;;1.25;;
13173;SDS011;6652;48.802;9.190;2023-12-20T09:57:45;11.27;;;1.42;;
13173;SDS011;6652;48.802;9.190;2023-12-20T10:00:12;5.97;;;1.35;;
13173;SDS011;6652;48.802;9.190;2023-12-20T10:02:41;7.30;;;1.60;;
13173;SDS011;6652;48.802;9.190;2023-12-20T10:05:16;5.18;;;1.40;;
13173;SDS011;6652;48.802;9.190;2023-12-20T10:07:46;3.92;;;1.10;;
13173;SDS011;6652;48.802;9.190;2023-12-20T10:10:13;5.00;;;1.15;;
13173;SDS011;6652;48.802;9.190;2023-12-20T10:12:40;5.65;;;1.15;;
13173;SDS011;6652;48.802;9.190;2023-12-20T10:15:26;6.28;;;1.33;;
13173;SDS011;6652;48.802;9.190;2023-12-20T10:17:53;9.18;;;1.45;;
13173;SDS011;6652;48.802;9.190;2023-12-20T10:20:20;8.50;;;1.85;;
13173;SDS011;6652;48.802;9.190;2023-12-20T10:22:48;4.45;;;1.33;;
13173;SDS011;6652;48.802;9.190;2023-12-20T10:25:18;9.90;;;1.40;;
13173;SDS011;6652;48.802;9.190;2023-12-20T10:27:45;6.60;;;1.33;;
13173;SDS011;6652;48.802;9.190;2023-12-20T10:30:12;6.63;;;1.25;;
13173;SDS011;6652;48.802;9.190;2023-12-20T10:32:39;5.75;;;1.27;;
13173;SDS011;6652;48.802;9.190;2023-12-20T10:35:06;6.47;;;2.13;;
13173;SDS011;6652;48.802;9.190;2023-12-20T10:37:35;3.15;;;1.10;;
13173;SDS011;6652;48.802;9.190;2023-12-20T10:40:04;11.93;;;1.65;;
13173;SDS011;6652;48.802;9.190;2023-12-20T10:42:32;6.25;;;1.73;;
13173;SDS011;6652;48.802;9.190;2023-12-20T10:44:59;11.35;;;1.50;;
13173;SDS011;6652;48.802;9.190;2023-12-20T10:47:26;5.00;;;1.35;;
13173;SDS011;6652;48.802;9.190;2023-12-20T10:49:57;7.30;;;1.38;;
13173;SDS011;6652;48.802;9.190;2023-12-20T10:52:26;6.43;;;1.70;;
13173;SDS011;6652;48.802;9.190;2023-12-20T10:54:55;7.85;;;1.60;;
13173;SDS011;6652;48.802;9.190;2023-12-20T10:57:23;9.70;;;2.05;;
13173;SDS011;6652;48.802;9.190;2023-12-20T10:59:53;6.25;;;1.33;;
13173;SDS011;6652;48.802;9.190;2023-12-20T11:02:22;6.72;;;1.60;;
13173;SDS011;6652;48.802;9.190;2023-12-20T11:04:50;8.18;;;1.50;;
13173;SDS011;6652;48.802;9.190;2023-12-20T11:07:23;9.32;;;1.85;;
13173;SDS011;6652;48.802;9.190;2023-12-20T11:09:57;8.82;;;1.95;;
13173;SDS011;6652;48.802;9.190;2023-12-20T11:12:32;9.00;;;1.65;;
13173;SDS011;6652;48.802;9.190;2023-12-20T11:15:06;11.75;;;1.52;;
13173;SDS011;6652;48.802;9.190;2023-12-20T11:17:33;7.63;;;1.65;;
13173;SDS011;6652;48.802;9.190;2023-12-20T11:20:04;8.27;;;1.33;;
13173;SDS011;6652;48.802;9.190;2023-12-20T11:22:32;10.32;;;2.20;;
13173;SDS011;6652;48.802;9.190;2023-12-20T11:25:02;8.48;;;1.55;;
13173;SDS011;6652;48.802;9.190;2023-12-20T11:27:32;8.15;;;2.83;;
13173;SDS011;6652;48.802;9.190;2023-12-20T11:29:59;13.73;;;2.83;;
13173;SDS011;6652;48.802;9.190;2023-12-20T11:32:31;8.20;;;1.38;;
13173;SDS011;6652;48.802;9.190;2023-12-20T11:34:59;5.65;;;1.33;;
13173;SDS011;6652;48.802;9.190;2023-12-20T11:37:42;12.43;;;2.17;;
13173;SDS011;6652;48.802;9.190;2023-12-20T11:40:11;5.75;;;1.45;;
13173;SDS011;6652;48.802;9.190;2023-12-20T11:42:41;5.32;;;1.13;;
13173;SDS011;6652;48.802;9.190;2023-12-20T11:45:09;12.30;;;1.60;;
13173;SDS011;6652;48.802;9.190;2023-12-20T11:47:38;7.25;;;1.60;;
13173;SDS011;6652;48.802;9.190;2023-12-20T11:50:05;11.57;;;1.85;;
13173;SDS011;6652;48.802;9.190;2023-12-20T11:52:32;11.32;;;1.35;;
13173;SDS011;6652;48.802;9.190;2023-12-20T11:54:59;12.10;;;1.65;;
13173;SDS011;6652;48.802;9.190;2023-12-20T11:57:26;7.68;;;1.52;;
13173;SDS011;6652;48.802;9.190;2023-12-20T11:59:54;9.23;;;1.42;;
13173;SDS011;6652;48.802;9.190;2023-12-20T12:02:21;8.15;;;1.45;;
13173;SDS011;6652;48.802;9.190;2023-12-20T12:04:48;13.38;;;1.90;;
13173;SDS011;6652;48.802;9.190;2023-12-20T12:07:16;6.28;;;1.60;;
13173;SDS011;6652;48.802;9.190;2023-12-20T12:09:43;7.85;;;1.55;;
13173;SDS011;6652;48.802;9.190;2023-12-20T12:12:10;7.07;;;1.80;;
13173;SDS011;6652;48.802;9.190;2023-12-20T12:14:38;6.47;;;1.05;;
13173;SDS011;6652;48.802;9.190;2023-12-20T12:17:11;12.48;;;1.65;;
13173;SDS011;6652;48.802;9.190;2023-12-20T12:19:38;6.18;;;1.23;;
13173;SDS011;6652;48.802;9.190;2023-12-20T12:22:06;10.18;;;1.90;;
13173;SDS011;6652;48.802;9.190;2023-12-20T12:24:35;8.85;;;1.50;;
13173;SDS011;6652;48.802;9.190;2023-12-20T12:27:02;7.03;;;1.90;;
13173;SDS011;6652;48.802;9.190;2023-12-20T12:29:31;7.95;;;1.48;;
13173;SDS011;6652;48.802;9.190;2023-12-20T12:31:58;12.13;;;3.47;;
13173;SDS011;6652;48.802;9.190;2023-12-20T12:34:28;9.55;;;1.70;;
13173;SDS011;6652;48.802;9.190;2023-12-20T12:36:55;7.32;;;1.73;;
13173;SDS011;6652;48.802;9.190;2023-12-20T12:39:22;11.25;;;1.83;;
13173;SDS011;6652;48.802;9.190;2023-12-20T12:41:51;11.77;;;1.88;;
13173;SDS011;6652;48.802;9.190;2023-12-20T12:44:18;9.73;;;1.90;;
13173;SDS011;6652;48.802;9.190;2023-12-20T12:46:45;6.20;;;1.25;;
13173;SDS011;6652;48.802;9.190;2023-12-20T12:49:14;4.68;;;1.33;;
13173;SDS011;6652;48.802;9.190;2023-12-20T12:51:43;6.38;;;1.40;;
13173;SDS011;6652;48.802;9.190;2023-12-20T12:54:09;7.90;;;1.20;;
13173;SDS011;6652;48.802;9.190;2023-12-20T12:56:38;7.88;;;1.42;;
13173;SDS011;6652;48.802;9.190;2023-12-20T12:59:05;4.75;;;1.45;;
13173;SDS011;6652;48.802;9.190;2023-12-20T13:01:32;9.52;;;1.65;;
13173;SDS011;6652;48.802;9.190;2023-12-20T13:03:59;10.75;;;1.60;;
13173;SDS011;6652;48.802;9.190;2023-12-20T13:06:26;5.75;;;1.63;;
13173;SDS011;6652;48.802;9.190;2023-12-20T13:08:54;10.63;;;1.60;;
13173;SDS011;6652;48.802;9.190;2023-12-20T13:11:21;7.72;;;1.70;;
13173;SDS011;6652;48.802;9.190;2023-12-20T13:13:48;7.50;;;1.38;;
13173;SDS011;6652;48.802;9.190;2023-12-20T13:16:15;8.32;;;1.50;;
13173;SDS011;6652;48.802;9.190;2023-12-20T13:18:41;10.88;;;1.58;;
13173;SDS011;6652;48.802;9.190;2023-12-20T13:21:08;7.13;;;1.23;;
13173;SDS011;6652;48.802;9.190;2023-12-20T13:23:35;7.70;;;1.35;;
13173;SDS011;6652;48.802;9.190;2023-12-20T13:26:03;5.03;;;1.38;;
13173;SDS011;6652;48.802;9.190;2023-12-20T13:28:30;8.43;;;1.45;;
13173;SDS011;6652;48.802;9.190;2023-12-20T13:30:57;9.23;;;1.42;;
13173;SDS011;6652;48.802;9.190;2023-12-20T13:33:24;9.80;;;1.88;;
13173;SDS011;6652;48.802;9.190;2023-12-20T13:35:51;6.07;;;1.30;;
13173;SDS011;6652;48.802;9.190;2023-12-20T13:38:18;8.38;;;1.48;;
13173;SDS011;6652;48.802;9.190;2023-12-20T13:40:45;9.82;;;1.75;;
13173;SDS011;6652;48.802;9.190;2023-12-20T13:43:13;8.75;;;1.40;;
13173;SDS011;6652;48.802;9.190;2023-12-20T13:45:45;5.75;;;1.40;;
13173;SDS011;6652;48.802;9.190;2023-12-20T13:48:13;7.93;;;1.40;;
13173;SDS011;6652;48.802;9.190;2023-12-20T13:50:40;7.00;;;0.90;;
13173;SDS011;6652;48.802;9.190;2023-12-20T13:53:07;6.65;;;1.75;;
13173;SDS011;6652;48.802;9.190;2023-12-20T13:55:33;6.72;;;1.10;;
13173;SDS011;6652;48.802;9.190;2023-12-20T13:58:00;8.48;;;1.23;;
13173;SDS011;6652;48.802;9.190;2023-12-20T14:00:28;5.65;;;1.13;;
13173;SDS011;6652;48.802;9.190;2023-12-20T14:02:55;9.93;;;1.88;;
13173;SDS011;6652;48.802;9.190;2023-12-20T14:05:23;7.57;;;1.60;;
13173;SDS011;6652;48.802;9.190;2023-12-20T14:07:50;9.45;;;2.33;;
13173;SDS011;6652;48.802;9.190;2023-12-20T14:10:17;7.88;;;1.30;;
13173;SDS011;6652;48.802;9.190;2023-12-20T14:12:44;8.25;;;1.42;;
13173;SDS011;6652;48.802;9.190;2023-12-20T14:15:10;8.93;;;1.55;;
13173;SDS011;6652;48.802;9.190;2023-12-20T14:17:39;6.00;;;1.40;;
13173;SDS011;6652;48.802;9.190;2023-12-20T14:20:07;7.50;;;1.60;;
13173;SDS011;6652;48.802;9.190;2023-12-20T14:22:37;9.15;;;1.70;;
13173;SDS011;6652;48.802;9.190;2023-12-20T14:25:10;11.27;;;1.90;;
13173;SDS011;6652;48.802;9.190;2023-12-20T14:27:37;7.85;;;1.58;;
13173;SDS011;6652;48.802;9.190;2023-12-20T14:30:04;6.55;;;1.42;;
13173;SDS011;6652;48.802;9.190;2023-12-20T14:32:34;6.45;;;1.45;;
13173;SDS011;6652;48.802;9.190;2023-12-20T14:35:03;6.85;;;1.40;;
13173;SDS011;6652;48.802;9.190;2023-12-20T14:37:31;6.38;;;1.40;;
13173;SDS011;6652;48.802;9.190;2023-12-20T14:39:58;7.72;;;1.35;;
13173;SDS011;6652;48.802;9.190;2023-12-20T14:42:24;5.72;;;1.13;;
13173;SDS011;6652;48.802;9.190;2023-12-20T14:44:51;7.70;;;1.30;;
13173;SDS011;6652;48.802;9.190;2023-12-20T14:47:19;6.80;;;1.50;;
13173;SDS011;6652;48.802;9.190;2023-12-20T14:49:46;4.28;;;1.20;;
13173;SDS011;6652;48.802;9.190;2023-12-20T14:52:15;5.85;;;0.98;;
13173;SDS011;6652;48.802;9.190;2023-12-20T14:54:43;11.35;;;2.13;;
13173;SDS011;6652;48.802;9.190;2023-12-20T14:57:10;7.65;;;1.73;;
13173;SDS011;6652;48.802;9.190;2023-12-20T14:59:37;7.40;;;1.45;;
13173;SDS011;6652;48.802;9.190;2023-12-20T15:02:04;12.50;;;1.60;;